Time;durP1;ratioP1;P1;durP2;ratioP2;P2;SDS_P1;SDS_P2;PMS_P1;PMS_P2;Temp;Humidity;BMP_temperature;BMP_pressure;BME280_temperature;BME280_humidity;BME280_pressure;Samples;Min_cycle;Max_cycle;Signal;HPM_P1;HPM_P2
2021/04/28 00:01:25;;;;;;;1.10;1.00;;;22.10;46.20;;;;;;5132485;27;20047;-39
2021/04/28 00:03:51;;;;;;;2.70;1.48;;;22.20;46.20;;;;;;5151257;27;20023;-41
2021/04/28 00:06:17;;;;;;;1.20;0.90;;;22.20;46.10;;;;;;5150016;27;20476;-38
2021/04/28 00:08:42;;;;;;;0.98;0.90;;;22.20;46.10;;;;;;5132528;27;20029;-39
2021/04/28 00:11:08;;;;;;;0.98;0.98;;;22.20;46.20;;;;;;5147992;27;20021;-39
2021/04/28 00:13:33;;;;;;;0.98;0.80;;;22.20;46.70;;;;;;5129912;27;20042;-40
2021/04/28 00:15:59;;;;;;;1.70;1.10;;;22.20;46.10;;;;;;5152275;27;20026;-39
2021/04/28 00:18:25;;;;;;;0.90;0.90;;;22.20;46.10;;;;;;5150232;27;20400;-40
2021/04/28 00:20:52;;;;;;;1.17;1.08;;;22.10;46.20;;;;;;5147621;27;20023;-39
2021/04/28 00:23:17;;;;;;;0.73;0.73;;;22.20;46.20;;;;;;5148632;27;20030;-38
2021/04/28 00:25:43;;;;;;;0.70;0.70;;;22.20;46.20;;;;;;5148836;27;20019;-38
2021/04/28 00:28:09;;;;;;;1.00;1.00;;;22.20;46.10;;;;;;5116251;27;20377;-37
2021/04/28 00:30:35;;;;;;;1.20;0.90;;;22.30;46.50;;;;;;5152574;27;20023;-40
2021/04/28 00:33:00;;;;;;;0.80;0.80;;;22.30;46.00;;;;;;5136362;27;20488;-40
2021/04/28 00:35:26;;;;;;;1.13;1.13;;;22.30;46.00;;;;;;5151660;27;20030;-40
2021/04/28 00:37:52;;;;;;;1.15;0.68;;;22.30;46.00;;;;;;5153417;27;20031;-41
2021/04/28 00:40:19;;;;;;;0.80;0.80;;;22.30;46.00;;;;;;5155202;27;20426;-37
2021/04/28 00:42:45;;;;;;;1.00;0.90;;;22.30;46.10;;;;;;5135965;27;20552;-39
2021/04/28 00:45:12;;;;;;;0.70;0.70;;;22.20;46.10;;;;;;5136167;27;20109;-40
2021/04/28 00:47:38;;;;;;;0.80;0.80;;;22.30;46.10;;;;;;5153600;27;20101;-40
2021/04/28 00:50:04;;;;;;;0.98;0.88;;;22.20;46.20;;;;;;5152182;27;20103;-39
2021/04/28 00:52:30;;;;;;;0.70;0.70;;;22.30;46.20;;;;;;5134490;27;20046;-39
2021/04/28 00:54:55;;;;;;;0.98;0.98;;;22.30;46.20;;;;;;5137136;27;20019;-36
2021/04/28 00:57:21;;;;;;;0.80;0.80;;;22.20;46.10;;;;;;5134814;27;20073;-39
2021/04/28 00:59:46;;;;;;;1.02;0.95;;;22.20;46.10;;;;;;5136167;27;20019;-39
2021/04/28 01:02:12;;;;;;;2.05;0.90;;;22.30;46.10;;;;;;5136040;27;20023;-39
2021/04/28 01:04:38;;;;;;;0.90;0.90;;;22.20;46.10;;;;;;5152621;27;20019;-39
2021/04/28 01:07:05;;;;;;;0.70;0.70;;;22.20;46.10;;;;;;5132292;27;20056;-38
2021/04/28 01:09:31;;;;;;;1.20;1.10;;;22.20;46.10;;;;;;5152888;27;20030;-40
2021/04/28 01:11:57;;;;;;;0.98;0.98;;;22.20;46.10;;;;;;5118733;27;20552;-38
2021/04/28 01:14:22;;;;;;;0.90;0.90;;;22.20;46.20;;;;;;5135598;27;20035;-37
2021/04/28 01:16:48;;;;;;;0.95;0.95;;;22.20;46.20;;;;;;5136174;27;20483;-39
2021/04/28 01:19:14;;;;;;;1.15;1.00;;;22.20;46.90;;;;;;5134674;27;20404;-40
2021/04/28 01:21:39;;;;;;;1.23;0.80;;;22.20;46.20;;;;;;5117239;27;20026;-40
2021/04/28 01:24:06;;;;;;;1.48;1.00;;;22.20;46.30;;;;;;5118482;27;20023;-39
2021/04/28 01:26:31;;;;;;;0.77;0.77;;;22.20;46.30;;;;;;5135312;27;20448;-39
2021/04/28 01:29:00;;;;;;;0.80;0.80;;;22.20;46.30;;;;;;5134716;27;20104;-40
2021/04/28 01:31:28;;;;;;;0.80;0.80;;;22.10;46.30;;;;;;5134443;27;20484;-40
2021/04/28 01:33:56;;;;;;;0.90;0.90;;;22.10;46.40;;;;;;5134988;27;20019;-40
2021/04/28 01:36:23;;;;;;;0.90;0.90;;;22.10;47.10;;;;;;5134676;27;20046;-38
2021/04/28 01:38:50;;;;;;;0.88;0.88;;;22.10;46.30;;;;;;5135635;27;20075;-38
2021/04/28 01:41:16;;;;;;;0.90;0.90;;;22.10;46.40;;;;;;5118075;27;20026;-40
2021/04/28 01:43:42;;;;;;;1.15;1.05;;;22.10;46.40;;;;;;5118367;27;20031;-37
2021/04/28 01:46:07;;;;;;;1.27;0.90;;;22.10;46.20;;;;;;5136300;27;20019;-38
2021/04/28 01:48:33;;;;;;;2.03;0.90;;;22.10;46.50;;;;;;5134448;27;20038;-39
2021/04/28 01:50:59;;;;;;;0.85;0.85;;;22.10;46.50;;;;;;5118118;27;20106;-38
2021/04/28 01:53:24;;;;;;;1.13;1.02;;;22.10;46.50;;;;;;5118532;27;20041;-38
2021/04/28 01:55:54;;;;;;;0.80;0.80;;;22.10;46.50;;;;;;5118347;27;20041;-39
2021/04/28 01:58:20;;;;;;;1.02;1.02;;;22.10;46.40;;;;;;5152327;27;20051;-36
2021/04/28 02:00:46;;;;;;;2.08;0.88;;;22.10;46.40;;;;;;5134192;27;20462;-39
2021/04/28 02:03:11;;;;;;;0.90;0.90;;;22.10;46.30;;;;;;5132868;27;20058;-40
2021/04/28 02:05:37;;;;;;;0.80;0.80;;;22.10;46.30;;;;;;5115829;27;20067;-39
2021/04/28 02:08:03;;;;;;;0.82;0.82;;;22.10;46.30;;;;;;5152428;27;20078;-39
2021/04/28 02:10:29;;;;;;;0.73;0.73;;;22.10;46.30;;;;;;5150899;27;20056;-39
2021/04/28 02:12:54;;;;;;;0.75;0.75;;;22.20;46.20;;;;;;5153471;27;20046;-39
2021/04/28 02:15:21;;;;;;;0.93;0.88;;;22.20;46.20;;;;;;5117182;27;20539;-38
2021/04/28 02:17:53;;;;;;;0.65;0.65;;;22.10;46.20;;;;;;5150353;27;20155;-38
2021/04/28 02:20:19;;;;;;;0.80;0.80;;;22.20;46.20;;;;;;5135396;27;20022;-43
2021/04/28 02:22:44;;;;;;;0.90;0.80;;;22.20;46.10;;;;;;5132546;27;20072;-37
2021/04/28 02:25:10;;;;;;;0.80;0.80;;;22.20;46.10;;;;;;5133769;27;20033;-37
2021/04/28 02:27:40;;;;;;;0.90;0.90;;;22.20;46.10;;;;;;5133089;27;20023;-37
2021/04/28 02:30:07;;;;;;;0.80;0.80;;;22.20;46.10;;;;;;5151555;27;20055;-37
2021/04/28 02:32:33;;;;;;;0.75;0.73;;;22.10;46.20;;;;;;5132777;27;20481;-39
2021/04/28 02:34:58;;;;;;;1.40;0.65;;;22.20;46.20;;;;;;5134293;27;20062;-38
2021/04/28 02:37:24;;;;;;;0.70;0.70;;;22.20;46.20;;;;;;5132515;27;20137;-38
2021/04/28 02:39:52;;;;;;;0.80;0.80;;;22.20;46.10;;;;;;5118616;27;20029;-39
2021/04/28 02:42:18;;;;;;;0.63;0.63;;;22.20;46.10;;;;;;5134569;27;20019;-37
2021/04/28 02:44:45;;;;;;;0.77;0.77;;;22.20;46.10;;;;;;5133984;27;20412;-38
2021/04/28 02:47:11;;;;;;;0.75;0.65;;;22.10;46.10;;;;;;5133758;27;20026;-39
2021/04/28 02:49:38;;;;;;;1.10;1.00;;;22.10;46.90;;;;;;5114251;27;20019;-40
2021/04/28 02:52:03;;;;;;;0.70;0.70;;;22.10;46.20;;;;;;5130723;27;20097;-39
2021/04/28 02:54:29;;;;;;;0.75;0.75;;;22.20;46.20;;;;;;5133865;27;20113;-36
2021/04/28 02:56:55;;;;;;;0.60;0.60;;;22.20;46.20;;;;;;5116927;27;20058;-38
2021/04/28 02:59:20;;;;;;;0.95;0.80;;;22.20;46.20;;;;;;5129392;27;20099;-36
2021/04/28 03:01:47;;;;;;;0.88;0.85;;;22.20;46.10;;;;;;5131321;27;20015;-39
2021/04/28 03:04:14;;;;;;;0.60;0.60;;;22.10;46.10;;;;;;5132029;27;20061;-38
2021/04/28 03:06:40;;;;;;;0.70;0.70;;;22.10;46.20;;;;;;5133445;27;20054;-39
2021/04/28 03:09:06;;;;;;;0.70;0.70;;;22.20;46.10;;;;;;5150001;27;20560;-39
2021/04/28 03:11:32;;;;;;;0.80;0.80;;;22.10;46.20;;;;;;5132695;27;20023;-40
2021/04/28 03:13:57;;;;;;;0.80;0.80;;;22.10;46.20;;;;;;5150663;27;20067;-37
2021/04/28 03:16:23;;;;;;;2.05;0.80;;;22.10;46.20;;;;;;5151541;27;20034;-39
2021/04/28 03:18:49;;;;;;;0.80;0.80;;;22.10;46.20;;;;;;5117736;27;20031;-40
2021/04/28 03:21:14;;;;;;;0.77;0.77;;;22.10;46.20;;;;;;5116470;27;20031;-39
2021/04/28 03:23:40;;;;;;;0.80;0.75;;;22.10;46.90;;;;;;5130162;27;20101;-39
2021/04/28 03:26:05;;;;;;;0.57;0.57;;;22.10;46.20;;;;;;5150827;27;20023;-40
2021/04/28 03:28:31;;;;;;;0.95;0.95;;;22.10;46.30;;;;;;5125618;27;20063;-40
2021/04/28 03:30:56;;;;;;;0.90;0.60;;;22.10;46.30;;;;;;5152901;27;20035;-37
2021/04/28 03:33:22;;;;;;;0.40;0.40;;;22.00;46.40;;;;;;5148928;27;20027;-38
2021/04/28 03:35:47;;;;;;;1.23;0.70;;;22.00;46.30;;;;;;5149964;27;20039;-40
2021/04/28 03:38:13;;;;;;;0.63;0.63;;;22.00;46.50;;;;;;5150129;27;20034;-39
2021/04/28 03:40:39;;;;;;;0.50;0.50;;;22.00;46.40;;;;;;5150113;27;20111;-41
2021/04/28 03:43:04;;;;;;;0.70;0.70;;;22.10;46.40;;;;;;5148167;27;20489;-39
2021/04/28 03:45:31;;;;;;;0.43;0.43;;;22.00;46.40;;;;;;5147876;27;20106;-40
2021/04/28 03:47:57;;;;;;;0.77;0.60;;;22.00;47.00;;;;;;5148481;27;20023;-38
2021/04/28 03:50:22;;;;;;;0.70;0.70;;;22.00;46.50;;;;;;5148886;27;20041;-40
2021/04/28 03:52:48;;;;;;;0.55;0.55;;;22.00;46.40;;;;;;5131641;27;20015;-40
2021/04/28 03:55:14;;;;;;;0.93;0.82;;;22.00;46.40;;;;;;5150914;27;20031;-39
2021/04/28 03:57:40;;;;;;;0.60;0.60;;;22.00;47.20;;;;;;5132267;27;20049;-39
2021/04/28 04:00:07;;;;;;;0.70;0.55;;;22.00;46.50;;;;;;5150435;27;20411;-40
2021/04/28 04:02:32;;;;;;;1.63;0.90;;;22.00;46.50;;;;;;5148764;27;20022;-37
2021/04/28 04:04:59;;;;;;;0.68;0.60;;;22.00;46.40;;;;;;5152210;27;22883;-40
2021/04/28 04:07:25;;;;;;;1.80;0.75;;;22.00;46.40;;;;;;5135834;27;20027;-39
2021/04/28 04:09:50;;;;;;;0.60;0.60;;;22.00;46.30;;;;;;5157416;27;20071;-40
2021/04/28 04:12:16;;;;;;;0.60;0.60;;;22.00;46.50;;;;;;5149245;27;20099;-35
2021/04/28 04:14:41;;;;;;;0.80;0.80;;;21.90;46.80;;;;;;5146312;27;20023;-38
2021/04/28 04:17:08;;;;;;;1.20;0.50;;;21.90;47.20;;;;;;5150394;27;20039;-39
2021/04/28 04:19:34;;;;;;;0.68;0.68;;;21.90;46.50;;;;;;5152005;27;20104;-41
2021/04/28 04:21:59;;;;;;;0.50;0.50;;;21.90;46.60;;;;;;5156197;27;20027;-39
2021/04/28 04:24:25;;;;;;;0.60;0.60;;;21.90;46.60;;;;;;5154138;27;20079;-37
2021/04/28 04:26:50;;;;;;;0.82;0.57;;;21.90;46.60;;;;;;5134864;27;20033;-39
2021/04/28 04:29:16;;;;;;;0.63;0.63;;;22.00;46.50;;;;;;5151967;27;20026;-37
2021/04/28 04:31:41;;;;;;;0.60;0.55;;;21.90;46.50;;;;;;5153650;27;20097;-41
2021/04/28 04:34:07;;;;;;;0.50;0.50;;;21.90;46.50;;;;;;5155973;27;20058;-39
2021/04/28 04:36:32;;;;;;;0.70;0.70;;;21.90;46.50;;;;;;5151961;27;20054;-38
2021/04/28 04:38:58;;;;;;;1.05;0.60;;;21.90;46.50;;;;;;5153712;27;20019;-34
2021/04/28 04:41:24;;;;;;;0.52;0.52;;;21.90;46.60;;;;;;5152259;27;20023;-39
2021/04/28 04:43:49;;;;;;;0.60;0.60;;;21.90;46.50;;;;;;5151879;27;20063;-39
2021/04/28 04:46:15;;;;;;;0.60;0.60;;;21.90;47.30;;;;;;5152948;27;20027;-39
2021/04/28 04:48:41;;;;;;;0.57;0.57;;;21.90;47.10;;;;;;5136080;27;20040;-39
2021/04/28 04:51:06;;;;;;;0.45;0.45;;;21.90;47.20;;;;;;5150594;27;20098;-39
2021/04/28 04:53:32;;;;;;;0.55;0.55;;;21.90;46.70;;;;;;5152867;27;20026;-39
2021/04/28 04:55:57;;;;;;;0.50;0.50;;;21.90;46.50;;;;;;5148958;27;20022;-40
2021/04/28 04:58:23;;;;;;;0.40;0.40;;;21.90;47.20;;;;;;5134947;27;20436;-39
2021/04/28 05:00:49;;;;;;;0.82;0.70;;;21.80;46.60;;;;;;5137779;27;20054;-40
2021/04/28 05:03:14;;;;;;;1.40;0.60;;;21.80;46.60;;;;;;5149726;27;20035;-39
2021/04/28 05:05:40;;;;;;;0.60;0.60;;;21.80;46.70;;;;;;5138297;27;20027;-40
2021/04/28 05:08:05;;;;;;;0.55;0.55;;;21.80;46.70;;;;;;5139558;27;20480;-36
2021/04/28 05:10:31;;;;;;;1.10;0.60;;;21.80;46.70;;;;;;5152371;27;20033;-39
2021/04/28 05:12:56;;;;;;;0.63;0.60;;;21.80;46.70;;;;;;5155016;27;20027;-37
2021/04/28 05:15:22;;;;;;;0.50;0.50;;;21.80;46.60;;;;;;5149833;27;20109;-39
2021/04/28 05:17:48;;;;;;;0.82;0.82;;;21.80;46.60;;;;;;5149994;27;20568;-36
2021/04/28 05:20:14;;;;;;;0.65;0.65;;;21.90;46.60;;;;;;5152776;27;20027;-39
2021/04/28 05:22:39;;;;;;;0.50;0.50;;;21.90;46.50;;;;;;5151737;27;20023;-40
2021/04/28 05:25:06;;;;;;;0.50;0.50;;;21.80;46.60;;;;;;5153191;27;20023;-39
2021/04/28 05:27:31;;;;;;;0.63;0.60;;;21.80;46.60;;;;;;5147941;27;20074;-35
2021/04/28 05:29:57;;;;;;;1.02;0.60;;;21.80;46.60;;;;;;5148621;27;20023;-38
2021/04/28 05:32:22;;;;;;;0.50;0.50;;;21.90;46.50;;;;;;5152958;27;20027;-37
2021/04/28 05:34:49;;;;;;;1.05;0.60;;;21.80;47.10;;;;;;5151794;27;20022;-39
2021/04/28 05:37:18;;;;;;;1.55;0.80;;;21.90;47.40;;;;;;5151824;27;20054;-43
2021/04/28 05:39:43;;;;;;;1.75;0.75;;;21.90;47.70;;;;;;5153322;27;20026;-37
2021/04/28 05:42:09;;;;;;;0.60;0.60;;;21.90;47.20;;;;;;5146749;27;20053;-37
2021/04/28 05:44:35;;;;;;;1.25;0.98;;;21.80;47.50;;;;;;5151513;27;20045;-39
2021/04/28 05:47:00;;;;;;;0.90;0.90;;;21.80;47.90;;;;;;5151997;27;20022;-39
2021/04/28 05:49:26;;;;;;;0.85;0.85;;;21.70;48.30;;;;;;5151808;27;20058;-40
2021/04/28 05:51:52;;;;;;;1.10;1.10;;;21.70;48.70;;;;;;5135001;27;20019;-40
2021/04/28 05:54:17;;;;;;;1.40;1.30;;;21.70;49.00;;;;;;5145875;27;20031;-46
2021/04/28 05:56:43;;;;;;;2.65;1.55;;;21.70;48.90;;;;;;5141478;27;20146;-42
2021/04/28 05:59:08;;;;;;;2.33;1.48;;;21.80;48.70;;;;;;5143800;27;20042;-42
2021/04/28 06:01:34;;;;;;;2.45;1.58;;;21.80;48.50;;;;;;5145837;27;20097;-44
2021/04/28 06:04:00;;;;;;;1.60;1.48;;;21.80;48.30;;;;;;5149203;27;20026;-42
2021/04/28 06:06:25;;;;;;;1.60;1.50;;;21.90;48.20;;;;;;5127012;27;20034;-42
2021/04/28 06:08:51;;;;;;;1.58;1.48;;;21.90;48.30;;;;;;5147403;27;20436;-40
2021/04/28 06:11:17;;;;;;;1.40;1.30;;;21.90;48.20;;;;;;5145816;27;20508;-44
2021/04/28 06:13:44;;;;;;;1.65;1.55;;;21.80;48.30;;;;;;5142513;27;20026;-41
2021/04/28 06:16:10;;;;;;;2.30;1.27;;;21.80;48.30;;;;;;5146602;27;20416;-41
2021/04/28 06:18:36;;;;;;;2.95;1.60;;;21.80;48.30;;;;;;5129466;27;20464;-43
2021/04/28 06:21:01;;;;;;;1.75;1.35;;;21.80;48.30;;;;;;5144726;27;20153;-39
2021/04/28 06:23:27;;;;;;;1.10;1.00;;;21.80;48.10;;;;;;5141139;27;20516;-42
2021/04/28 06:25:53;;;;;;;1.35;1.10;;;21.80;48.00;;;;;;5136692;27;20087;-42
2021/04/28 06:28:18;;;;;;;2.45;1.10;;;21.80;48.00;;;;;;5134505;27;20027;-42
2021/04/28 06:30:44;;;;;;;1.50;1.40;;;21.80;48.10;;;;;;5141276;27;20084;-37
2021/04/28 06:33:10;;;;;;;2.38;1.27;;;21.80;48.10;;;;;;5144871;27;20060;-39
2021/04/28 06:35:35;;;;;;;1.77;1.10;;;21.80;48.20;;;;;;5143659;27;20043;-45
2021/04/28 06:38:01;;;;;;;2.78;1.15;;;21.80;48.10;;;;;;5137365;27;20042;-44
2021/04/28 06:40:26;;;;;;;1.20;1.20;;;21.80;48.20;;;;;;5123988;27;20486;-41
2021/04/28 06:42:52;;;;;;;1.50;1.30;;;21.80;48.20;;;;;;5145495;27;20029;-43
2021/04/28 06:45:17;;;;;;;1.25;1.15;;;21.80;48.40;;;;;;5143518;27;20029;-43
2021/04/28 06:47:43;;;;;;;1.73;1.38;;;21.80;48.50;;;;;;5138424;27;20454;-43
2021/04/28 06:50:10;;;;;;;1.70;1.45;;;21.80;48.50;;;;;;5139901;27;20029;-42
2021/04/28 06:52:36;;;;;;;2.67;1.38;;;21.80;48.80;;;;;;5144599;27;20678;-42
2021/04/28 06:55:02;;;;;;;1.25;1.15;;;21.80;48.80;;;;;;5143428;27;20034;-42
2021/04/28 06:57:28;;;;;;;1.13;1.02;;;21.70;48.90;;;;;;5140278;27;20344;-43
2021/04/28 06:59:53;;;;;;;1.73;1.30;;;21.60;49.60;;;;;;5142966;27;20426;-42
2021/04/28 07:02:19;;;;;;;3.17;1.00;;;21.60;49.80;;;;;;5143073;27;20041;-44
2021/04/28 07:04:44;;;;;;;2.25;1.00;;;21.60;50.00;;;;;;5145579;27;20033;-43
2021/04/28 07:07:10;;;;;;;2.38;1.13;;;21.50;50.40;;;;;;5146102;27;20035;-42
2021/04/28 07:09:35;;;;;;;1.75;1.02;;;21.40;50.30;;;;;;5134357;27;20031;-42
2021/04/28 07:12:01;;;;;;;1.30;1.20;;;21.60;50.00;;;;;;5134536;27;20080;-42
2021/04/28 07:14:27;;;;;;;2.70;1.20;;;21.70;49.30;;;;;;5131454;27;20108;-41
2021/04/28 07:16:52;;;;;;;1.35;1.25;;;21.80;49.10;;;;;;5129507;27;20042;-41
2021/04/28 07:19:18;;;;;;;2.70;1.27;;;21.80;48.90;;;;;;5132140;27;20790;-40
2021/04/28 07:21:43;;;;;;;2.63;1.20;;;21.90;49.10;;;;;;5132382;27;20076;-39
2021/04/28 07:24:10;;;;;;;1.58;1.35;;;21.80;49.40;;;;;;5130454;27;20031;-40
2021/04/28 07:26:35;;;;;;;3.33;1.30;;;21.80;49.10;;;;;;5131025;27;20091;-42
2021/04/28 07:29:02;;;;;;;1.48;1.38;;;21.70;49.10;;;;;;5133819;27;20030;-42
2021/04/28 07:31:29;;;;;;;3.00;1.33;;;21.60;49.20;;;;;;5129516;27;20030;-41
2021/04/28 07:33:55;;;;;;;1.40;1.30;;;21.70;49.30;;;;;;5132772;27;20054;-44
2021/04/28 07:36:21;;;;;;;1.20;1.10;;;21.80;48.80;;;;;;5130890;27;20472;-42
2021/04/28 07:38:46;;;;;;;2.33;1.20;;;21.90;48.70;;;;;;5112723;27;20027;-44
2021/04/28 07:41:12;;;;;;;1.40;1.30;;;21.90;48.70;;;;;;5135293;27;20142;-38
2021/04/28 07:43:37;;;;;;;3.25;1.50;;;22.00;49.00;;;;;;5134960;27;20036;-40
2021/04/28 07:46:03;;;;;;;2.08;1.23;;;22.00;48.50;;;;;;5117528;27;20050;-40
2021/04/28 07:48:29;;;;;;;2.17;1.35;;;21.80;48.70;;;;;;5135497;27;20034;-44
2021/04/28 07:50:54;;;;;;;1.85;1.23;;;21.90;48.50;;;;;;5136681;27;20149;-43
2021/04/28 07:53:20;;;;;;;1.63;1.10;;;22.10;47.90;;;;;;5134201;27;20507;-41
2021/04/28 07:55:47;;;;;;;2.72;1.50;;;22.20;47.70;;;;;;5135393;27;20072;-44
2021/04/28 07:58:16;;;;;;;3.13;1.25;;;22.30;47.50;;;;;;5134822;27;20054;-45
2021/04/28 08:00:42;;;;;;;2.17;0.93;;;22.40;47.60;;;;;;5130250;27;20031;-43
2021/04/28 08:03:08;;;;;;;2.38;1.10;;;22.30;48.30;;;;;;4772668;27;9999871;-45
2021/04/28 08:05:34;;;;;;;4.85;0.95;;;22.30;48.10;;;;;;5092252;27;20031;-47
2021/04/28 08:07:59;;;;;;;1.45;1.10;;;22.40;48.10;;;;;;5127937;27;20030;-45
2021/04/28 08:10:25;;;;;;;1.42;0.98;;;22.40;47.90;;;;;;5128402;27;20452;-43
2021/04/28 08:12:50;;;;;;;1.60;0.98;;;22.50;47.70;;;;;;5128120;27;20034;-44
2021/04/28 08:15:16;;;;;;;1.67;0.98;;;22.50;47.20;;;;;;5128985;27;20087;-44
2021/04/28 08:17:42;;;;;;;0.98;0.90;;;22.60;47.00;;;;;;5125149;27;20495;-42
2021/04/28 08:20:09;;;;;;;1.83;0.95;;;22.60;47.20;;;;;;5128410;27;20034;-44
2021/04/28 08:22:34;;;;;;;2.95;1.20;;;22.50;46.80;;;;;;5109863;27;20041;-45
2021/04/28 08:25:00;;;;;;;1.58;1.10;;;22.30;47.50;;;;;;5131088;27;20023;-39
2021/04/28 08:27:26;;;;;;;1.15;0.90;;;22.40;47.60;;;;;;5127919;27;20046;-38
2021/04/28 08:29:52;;;;;;;1.60;0.77;;;22.30;48.10;;;;;;5129135;27;20028;-47
2021/04/28 08:32:17;;;;;;;2.78;1.00;;;22.40;47.60;;;;;;5111798;27;20042;-44
2021/04/28 08:34:44;;;;;;;1.58;0.90;;;22.40;48.60;;;;;;5128410;27;20581;-44
2021/04/28 08:37:09;;;;;;;1.25;0.80;;;22.20;48.90;;;;;;5129867;27;20058;-42
2021/04/28 08:39:35;;;;;;;3.33;1.05;;;22.30;48.70;;;;;;5129798;27;20031;-43
2021/04/28 08:42:01;;;;;;;3.30;1.02;;;22.20;49.00;;;;;;5128737;27;20087;-45
2021/04/28 08:44:29;;;;;;;3.15;1.25;;;22.20;48.80;;;;;;5110540;27;20034;-46
2021/04/28 08:46:54;;;;;;;1.95;0.80;;;22.20;48.90;;;;;;5128357;27;20114;-44
2021/04/28 08:49:20;;;;;;;1.00;0.90;;;22.30;48.40;;;;;;5128190;27;20488;-43
2021/04/28 08:51:45;;;;;;;2.50;1.00;;;22.40;48.60;;;;;;5129157;27;20038;-42
2021/04/28 08:54:11;;;;;;;1.83;1.00;;;22.40;48.80;;;;;;5114367;27;20034;-45
2021/04/28 08:56:36;;;;;;;1.55;0.98;;;22.40;48.90;;;;;;5096987;27;20649;-45
2021/04/28 08:59:05;;;;;;;4.18;0.77;;;22.50;49.00;;;;;;5133824;27;20448;-41
2021/04/28 09:01:35;;;;;;;1.52;0.90;;;22.50;48.80;;;;;;5134365;27;20108;-44
2021/04/28 09:04:02;;;;;;;4.88;0.90;;;22.60;49.30;;;;;;5135347;27;20149;-42
2021/04/28 09:06:29;;;;;;;1.23;0.90;;;22.50;49.00;;;;;;5131246;27;20057;-43
2021/04/28 09:08:55;;;;;;;1.10;0.90;;;22.70;48.80;;;;;;5132632;27;20458;-44
2021/04/28 09:11:40;;;;;;;1.63;1.00;;;22.90;48.40;;;;;;5096520;27;20720;-43
2021/04/28 09:14:12;;;;;;;0.93;0.70;;;23.00;48.80;;;;;;5134247;27;20035;-43
2021/04/28 09:16:39;;;;;;;1.30;0.85;;;23.00;48.50;;;;;;5100069;27;20031;-41
2021/04/28 09:19:05;;;;;;;1.42;0.85;;;23.10;48.40;;;;;;5135352;27;20041;-42
2021/04/28 09:21:47;;;;;;;2.85;0.98;;;23.00;48.90;;;;;;5133773;27;20035;-43
2021/04/28 09:24:25;;;;;;;3.45;0.88;;;23.10;47.90;;;;;;5134306;27;20034;-44
2021/04/28 09:26:55;;;;;;;5.47;0.93;;;23.20;47.70;;;;;;5132456;27;20034;-44
2021/04/28 09:29:23;;;;;;;1.30;0.80;;;23.10;48.00;;;;;;5131028;27;20034;-43
2021/04/28 09:32:08;;;;;;;2.45;1.10;;;23.20;47.50;;;;;;5131901;27;20022;-48
2021/04/28 09:34:40;;;;;;;2.60;0.90;;;23.20;47.20;;;;;;5132887;27;20030;-49
2021/04/28 09:37:13;;;;;;;1.95;1.10;;;23.40;46.90;;;;;;5134204;27;20127;-45
2021/04/28 09:39:40;;;;;;;1.63;0.90;;;23.30;47.10;;;;;;5133719;27;20872;-44
2021/04/28 09:42:06;;;;;;;1.08;0.90;;;23.40;46.80;;;;;;5133057;27;20057;-47
2021/04/28 09:44:32;;;;;;;3.17;1.20;;;23.40;46.80;;;;;;5133768;27;20535;-42
2021/04/28 09:47:12;;;;;;;3.25;1.20;;;23.40;46.90;;;;;;5130416;27;20035;-42
2021/04/28 09:49:44;;;;;;;5.93;1.10;;;23.40;46.90;;;;;;5114438;27;20700;-42
2021/04/28 09:52:10;;;;;;;3.03;1.20;;;23.40;46.70;;;;;;5135175;27;20900;-40
2021/04/28 09:54:36;;;;;;;2.60;1.02;;;23.40;46.70;;;;;;5133596;27;20049;-42
2021/04/28 09:57:02;;;;;;;2.67;1.08;;;23.40;46.50;;;;;;5130927;27;20454;-42
2021/04/28 09:59:44;;;;;;;5.60;1.35;;;23.40;47.00;;;;;;5112526;27;21384;-44
2021/04/28 10:02:33;;;;;;;1.42;0.95;;;23.30;46.80;;;;;;5115947;27;20030;-43
2021/04/28 10:05:15;;;;;;;2.67;1.00;;;23.40;47.30;;;;;;5133311;27;20046;-43
2021/04/28 10:07:40;;;;;;;1.88;0.90;;;23.50;46.60;;;;;;5132310;27;20027;-40
2021/04/28 10:10:06;;;;;;;2.35;1.10;;;23.30;46.90;;;;;;5134446;27;20034;-44
2021/04/28 10:12:32;;;;;;;4.00;1.05;;;23.40;46.70;;;;;;5133644;27;20624;-44
2021/04/28 10:14:57;;;;;;;0.95;0.85;;;23.40;46.70;;;;;;5132993;27;20114;-39
2021/04/28 10:17:23;;;;;;;1.48;0.85;;;23.50;46.40;;;;;;5132769;27;20034;-42
2021/04/28 10:19:48;;;;;;;2.85;0.80;;;23.60;46.10;;;;;;5095068;27;20662;-42
2021/04/28 10:22:17;;;;;;;1.63;0.95;;;23.50;46.30;;;;;;5100020;27;20043;-41
2021/04/28 10:24:52;;;;;;;1.80;0.90;;;23.60;46.20;;;;;;5134053;27;20519;-41
2021/04/28 10:27:18;;;;;;;1.17;1.00;;;23.60;46.10;;;;;;5113589;27;20042;-40
2021/04/28 10:29:51;;;;;;;1.95;1.20;;;23.60;45.90;;;;;;5114544;27;20031;-40
2021/04/28 10:32:18;;;;;;;1.23;0.80;;;23.60;46.10;;;;;;5115395;27;20121;-38
2021/04/28 10:35:05;;;;;;;1.33;0.90;;;23.60;45.60;;;;;;5133091;27;20034;-42
2021/04/28 10:37:32;;;;;;;3.45;1.10;;;23.60;46.10;;;;;;5131012;27;20096;-42
2021/04/28 10:39:58;;;;;;;2.67;1.20;;;23.60;46.00;;;;;;5135634;27;20050;-40
2021/04/28 10:42:36;;;;;;;1.92;0.82;;;23.60;46.10;;;;;;5131532;27;20121;-40
2021/04/28 10:45:03;;;;;;;1.77;0.90;;;23.70;46.10;;;;;;4776317;27;10000270;-40
2021/04/28 10:47:36;;;;;;;1.10;0.88;;;23.70;46.10;;;;;;5111628;27;20849;-43
2021/04/28 10:50:08;;;;;;;1.30;1.00;;;23.70;46.30;;;;;;5129144;27;20033;-43
2021/04/28 10:52:52;;;;;;;1.17;0.70;;;23.60;46.30;;;;;;5128700;27;20400;-39
2021/04/28 10:55:44;;;;;;;1.55;0.88;;;23.70;46.50;;;;;;5126478;27;20808;-39
2021/04/28 10:58:26;;;;;;;0.80;0.80;;;23.50;46.90;;;;;;5123166;27;20038;-40
2021/04/28 11:00:58;;;;;;;1.67;1.30;;;23.60;46.80;;;;;;5105608;27;20406;-44
2021/04/28 11:03:30;;;;;;;3.50;2.50;;;23.60;46.90;;;;;;5089711;28;20042;-43
2021/04/28 11:05:59;;;;;;;3.88;2.30;;;23.60;47.00;;;;;;5072065;28;20655;-43
2021/04/28 11:08:30;;;;;;;5.38;2.10;;;23.60;46.90;;;;;;5089586;28;20040;-43
2021/04/28 11:10:56;;;;;;;2.28;2.17;;;23.70;47.00;;;;;;5092451;28;20055;-43
2021/04/28 11:13:21;;;;;;;2.15;2.05;;;23.70;46.80;;;;;;5069652;28;20055;-43
2021/04/28 11:15:54;;;;;;;2.13;2.03;;;23.70;46.50;;;;;;5091247;28;20040;-44
2021/04/28 11:18:26;;;;;;;2.58;2.33;;;23.80;46.30;;;;;;5093181;28;20056;-42
2021/04/28 11:21:11;;;;;;;2.53;2.40;;;23.80;46.20;;;;;;5090264;28;20032;-44
2021/04/28 11:23:38;;;;;;;2.40;2.17;;;23.80;46.10;;;;;;5075770;28;20417;-38
2021/04/28 11:26:33;;;;;;;2.30;2.20;;;23.70;46.10;;;;;;5095601;28;20043;-41
2021/04/28 11:28:59;;;;;;;2.55;2.00;;;23.60;46.10;;;;;;5081345;28;20123;-45
2021/04/28 11:31:39;;;;;;;1.90;1.80;;;23.60;46.50;;;;;;5073654;28;20123;-44
2021/04/28 11:34:33;;;;;;;1.80;1.70;;;23.70;46.10;;;;;;5086337;28;20048;-43
2021/04/28 11:37:06;;;;;;;3.30;1.77;;;23.70;46.90;;;;;;5094007;28;20059;-42
2021/04/28 11:39:38;;;;;;;1.55;1.45;;;23.70;46.30;;;;;;5093719;28;20103;-43
2021/04/28 11:42:10;;;;;;;1.65;1.55;;;23.80;46.20;;;;;;5095629;28;20094;-44
2021/04/28 11:44:54;;;;;;;2.40;1.50;;;23.70;45.90;;;;;;5095263;28;20039;-41
2021/04/28 11:47:23;;;;;;;;;;;23.80;45.50;;;;;;5060513;28;20052;-42
2021/04/28 11:49:54;;;;;;;1.90;1.50;;;23.80;45.40;;;;;;5091541;28;19923;-43
2021/04/28 11:52:21;;;;;;;1.40;1.30;;;23.80;45.60;;;;;;5094238;28;20039;-43
2021/04/28 11:54:52;;;;;;;1.20;1.10;;;23.80;45.50;;;;;;5093716;28;20044;-40
2021/04/28 11:57:31;;;;;;;1.77;1.60;;;23.80;45.30;;;;;;5073201;28;20070;-42
2021/04/28 12:00:07;;;;;;;1.45;1.35;;;23.70;45.40;;;;;;5078001;28;20460;-37
2021/04/28 12:02:33;;;;;;;1.35;1.20;;;23.80;45.20;;;;;;5093962;28;20052;-43
2021/04/28 12:04:59;;;;;;;2.90;1.33;;;23.80;45.10;;;;;;5093347;28;20517;-39
2021/04/28 12:07:24;;;;;;;1.45;1.33;;;23.90;44.80;;;;;;5092824;28;20497;-42
2021/04/28 12:09:51;;;;;;;1.05;0.98;;;23.90;44.80;;;;;;5092723;28;20044;-44
2021/04/28 12:12:33;;;;;;;1.42;1.10;;;23.90;44.70;;;;;;5096084;28;20517;-44
2021/04/28 12:15:05;;;;;;;1.23;1.00;;;23.90;44.60;;;;;;5090698;28;20360;-42
2021/04/28 12:17:35;;;;;;;1.48;1.00;;;24.00;44.40;;;;;;5092666;28;20048;-40
2021/04/28 12:20:01;;;;;;;1.65;1.33;;;23.90;44.60;;;;;;5088140;28;20758;-42
2021/04/28 12:22:27;;;;;;;0.95;0.95;;;23.90;44.50;;;;;;5094954;28;20040;-43
2021/04/28 12:24:54;;;;;;;0.80;0.80;;;24.00;44.40;;;;;;5094835;28;20093;-43
2021/04/28 12:27:29;;;;;;;0.90;0.90;;;23.90;44.50;;;;;;5099370;28;20055;-42
2021/04/28 12:29:58;;;;;;;0.98;0.98;;;23.90;44.50;;;;;;5101548;28;20040;-43
2021/04/28 12:32:35;;;;;;;1.98;0.93;;;23.90;44.40;;;;;;5096302;28;20131;-43
2021/04/28 12:35:16;;;;;;;0.90;0.80;;;23.90;44.60;;;;;;5089190;28;20425;-40
2021/04/28 12:37:56;;;;;;;1.00;0.80;;;23.80;44.50;;;;;;5089768;28;20044;-41
2021/04/28 12:40:21;;;;;;;1.75;0.82;;;23.70;44.80;;;;;;5094458;28;20056;-43
2021/04/28 12:42:47;;;;;;;0.80;0.80;;;23.80;45.20;;;;;;5074248;28;20039;-42
2021/04/28 12:45:14;;;;;;;1.00;0.90;;;23.70;44.70;;;;;;5062611;28;20040;-44
2021/04/28 12:47:41;;;;;;;1.33;1.08;;;23.70;44.80;;;;;;5077901;28;20287;-40
2021/04/28 12:50:12;;;;;;;0.70;0.70;;;23.80;44.50;;;;;;5093631;28;20047;-42